createdAt,value
2019-02-06T00:02:14.112Z,19.20
2019-02-06T00:04:44.620Z,19.05
2019-02-06T00:07:15.100Z,18.25
2019-02-06T00:09:45.655Z,21.73
2019-02-06T00:12:16.132Z,19.25
2019-02-06T00:14:46.663Z,21.75
2019-02-06T00:17:17.222Z,20.52
2019-02-06T00:19:47.849Z,18.42
2019-02-06T00:22:18.338Z,17.90
2019-02-06T00:24:48.940Z,19.07
2019-02-06T00:27:19.453Z,18.30
2019-02-06T00:29:49.955Z,17.40
2019-02-06T00:32:20.535Z,19.40
2019-02-06T00:34:51.017Z,17.77
2019-02-06T00:37:21.525Z,19.52
2019-02-06T00:39:52.044Z,18.20
2019-02-06T00:42:22.741Z,19.60
2019-02-06T00:44:53.256Z,17.67
2019-02-06T00:47:23.810Z,19.27
2019-02-06T00:49:54.322Z,18.10
2019-02-06T00:52:24.932Z,19.12
2019-02-06T00:54:55.903Z,17.98
2019-02-06T00:57:26.392Z,18.00
2019-02-06T00:59:58.619Z,18.23
2019-02-06T01:02:29.318Z,18.82
2019-02-06T01:04:59.806Z,18.05
2019-02-06T01:07:30.287Z,17.90
2019-02-06T01:10:00.817Z,17.67
2019-02-06T01:12:31.295Z,19.10
2019-02-06T01:15:01.761Z,17.20
2019-02-06T01:17:32.378Z,18.27
2019-02-06T01:20:03.777Z,17.12
2019-02-06T01:22:34.740Z,18.35
2019-02-06T01:25:06.984Z,17.70
2019-02-06T01:27:37.462Z,19.27
2019-02-06T01:30:15.874Z,19.30
2019-02-06T01:32:46.358Z,16.50
2019-02-06T01:35:17.306Z,19.75
2019-02-06T01:37:47.995Z,16.85
2019-02-06T01:40:19.922Z,18.55
2019-02-06T01:42:50.471Z,16.80
2019-02-06T01:45:21.689Z,17.70
2019-02-06T01:47:52.270Z,19.35
2019-02-06T01:50:22.828Z,17.45
2019-02-06T01:52:53.326Z,18.10
2019-02-06T01:55:23.838Z,17.65
2019-02-06T01:57:54.340Z,18.57
2019-02-06T02:00:25.445Z,18.15
2019-02-06T02:02:56.301Z,16.90
2019-02-06T02:05:26.835Z,18.32
2019-02-06T02:07:57.336Z,18.30
2019-02-06T02:10:27.818Z,18.10
2019-02-06T02:12:58.308Z,16.70
2019-02-06T02:15:28.864Z,18.32
2019-02-06T02:17:59.504Z,17.55
2019-02-06T02:20:30.021Z,16.95
2019-02-06T02:23:00.493Z,17.05
2019-02-06T02:25:30.993Z,16.77
2019-02-06T02:28:01.446Z,16.27
2019-02-06T02:30:43.149Z,16.00
2019-02-06T02:33:13.615Z,16.95
2019-02-06T02:35:44.208Z,15.72
2019-02-06T02:38:14.669Z,17.05
2019-02-06T02:40:45.144Z,17.02
2019-02-06T02:43:15.762Z,17.62
2019-02-06T02:45:46.291Z,16.73
2019-02-06T02:48:16.871Z,15.93
2019-02-06T02:50:47.389Z,17.82
2019-02-06T02:53:17.891Z,17.23
2019-02-06T02:55:48.375Z,16.55
2019-02-06T02:58:18.895Z,19.45
2019-02-06T03:01:08.972Z,17.75
2019-02-06T03:03:50.535Z,18.52
2019-02-06T03:06:28.319Z,19.73
2019-02-06T03:08:53.229Z,18.80
2019-02-06T03:11:23.729Z,20.32
2019-02-06T03:13:54.315Z,19.80
2019-02-06T03:16:24.811Z,21.33
2019-02-06T03:18:55.277Z,19.83
2019-02-06T03:21:25.774Z,20.17
2019-02-06T03:23:56.363Z,22.07
2019-02-06T03:26:26.923Z,21.20
2019-02-06T03:28:57.406Z,23.18
2019-02-06T03:31:28.256Z,23.67
2019-02-06T03:33:58.707Z,22.25
2019-02-06T03:36:39.851Z,22.00
2019-02-06T03:39:01.367Z,24.43
2019-02-06T03:41:31.900Z,24.18
2019-02-06T03:44:02.397Z,24.57
2019-02-06T03:46:32.901Z,22.42
2019-02-06T03:49:03.392Z,24.13
2019-02-06T03:51:33.927Z,25.32
2019-02-06T03:54:04.685Z,24.50
2019-02-06T03:56:35.148Z,24.98
2019-02-06T03:59:06.063Z,23.95
2019-02-06T04:01:36.509Z,24.45
2019-02-06T04:04:06.990Z,26.62
2019-02-06T04:06:37.479Z,25.90
2019-02-06T04:09:10.024Z,24.12
2019-02-06T04:11:40.538Z,25.08
2019-02-06T04:14:11.044Z,24.00
2019-02-06T04:16:41.510Z,26.12
2019-02-06T04:19:12.204Z,24.35
2019-02-06T04:21:42.716Z,24.25
2019-02-06T04:24:32.157Z,25.95
2019-02-06T04:27:02.641Z,25.08
2019-02-06T04:29:33.100Z,25.43
2019-02-06T04:32:03.571Z,26.10
2019-02-06T04:34:34.067Z,25.30
2019-02-06T04:37:06.935Z,26.02
2019-02-06T04:39:37.041Z,24.32
2019-02-06T04:42:07.527Z,23.40
2019-02-06T04:44:38.025Z,25.02
2019-02-06T04:47:08.477Z,23.52
2019-02-06T04:49:38.989Z,23.38
2019-02-06T04:52:09.490Z,23.60
2019-02-06T04:54:39.967Z,25.05
2019-02-06T04:57:10.453Z,24.15
2019-02-06T04:59:40.975Z,24.65
2019-02-06T05:02:11.477Z,24.02
2019-02-06T05:04:42.332Z,23.50
2019-02-06T05:07:19.495Z,23.42
2019-02-06T05:09:45.115Z,23.62
2019-02-06T05:12:15.589Z,25.35
2019-02-06T05:14:46.073Z,24.50
2019-02-06T05:17:16.550Z,25.50
2019-02-06T05:19:47.110Z,24.50
2019-02-06T05:22:17.572Z,23.25
2019-02-06T05:24:47.969Z,24.57
2019-02-06T05:27:18.479Z,21.80
2019-02-06T05:29:48.956Z,23.60
2019-02-06T05:32:19.479Z,23.65
2019-02-06T05:34:50.019Z,22.95
2019-02-06T05:37:31.566Z,22.45
2019-02-06T05:39:54.321Z,23.07
2019-02-06T05:42:24.810Z,24.80
2019-02-06T05:44:55.498Z,23.80
2019-02-06T05:47:26.143Z,24.12
2019-02-06T05:49:56.688Z,22.80
2019-02-06T05:52:27.133Z,22.75
2019-02-06T05:54:57.665Z,24.30
2019-02-06T05:57:28.229Z,23.35
2019-02-06T05:59:58.720Z,22.90
2019-02-06T06:02:29.203Z,23.37
2019-02-06T06:04:59.695Z,23.42
2019-02-06T06:07:30.159Z,21.80
2019-02-06T06:10:00.653Z,22.25
2019-02-06T06:12:31.109Z,23.45
2019-02-06T06:15:01.791Z,24.40
2019-02-06T06:17:32.333Z,23.53
2019-02-06T06:20:02.862Z,22.15
2019-02-06T06:22:33.339Z,22.42
2019-02-06T06:25:03.957Z,22.75
2019-02-06T06:27:34.412Z,22.00
2019-02-06T06:30:06.519Z,23.37
2019-02-06T06:32:37.027Z,22.73
2019-02-06T06:35:08.625Z,22.05
2019-02-06T06:37:41.448Z,22.73
2019-02-06T06:40:18.293Z,20.77
2019-02-06T06:42:49.328Z,20.90
2019-02-06T06:45:22.637Z,20.55
2019-02-06T06:47:53.086Z,21.30
2019-02-06T06:50:24.986Z,20.50
2019-02-06T06:52:55.816Z,21.68
2019-02-06T06:55:26.544Z,23.12
2019-02-06T06:57:57.033Z,19.75
2019-02-06T07:00:30.009Z,21.07
2019-02-06T07:03:01.069Z,21.05
2019-02-06T07:05:31.510Z,21.10
2019-02-06T07:08:09.200Z,19.82
2019-02-06T07:10:34.162Z,20.80
2019-02-06T07:13:04.679Z,20.52
2019-02-06T07:15:36.253Z,20.47
2019-02-06T07:18:06.840Z,19.35
2019-02-06T07:20:37.356Z,20.12
2019-02-06T07:23:07.870Z,19.80
2019-02-06T07:25:38.333Z,18.50
2019-02-06T07:28:08.799Z,18.17
2019-02-06T07:30:39.291Z,19.55
2019-02-06T07:33:09.755Z,20.10
2019-02-06T07:35:40.605Z,18.02
2019-02-06T07:38:16.971Z,21.20
2019-02-06T07:40:43.343Z,19.30
2019-02-06T07:43:13.852Z,18.87
2019-02-06T07:45:44.390Z,17.85
2019-02-06T07:48:14.855Z,20.15
2019-02-06T07:50:45.301Z,18.75
2019-02-06T07:53:16.037Z,17.85
2019-02-06T07:55:46.581Z,17.75
2019-02-06T07:58:17.095Z,17.12
2019-02-06T08:00:47.630Z,16.77
2019-02-06T08:03:18.530Z,17.52
2019-02-06T08:05:49.028Z,16.80
2019-02-06T08:08:19.536Z,17.20
2019-02-06T08:10:49.991Z,19.10
2019-02-06T08:13:20.472Z,16.07
2019-02-06T08:15:51.037Z,16.07
2019-02-06T08:18:21.769Z,18.37
2019-02-06T08:20:52.233Z,16.07
2019-02-06T08:23:22.745Z,15.75
2019-02-06T08:25:53.228Z,15.15
2019-02-06T08:28:25.175Z,15.50
2019-02-06T08:30:56.079Z,16.67
2019-02-06T08:33:26.566Z,16.70
2019-02-06T08:35:57.012Z,15.58
2019-02-06T08:38:27.575Z,16.30
2019-02-06T08:40:58.045Z,15.35
2019-02-06T08:43:28.590Z,14.55
2019-02-06T08:45:59.107Z,14.80
2019-02-06T08:48:29.637Z,14.43
2019-02-06T08:51:00.133Z,13.70
2019-02-06T08:53:31.045Z,13.58
2019-02-06T08:56:01.576Z,14.45
2019-02-06T08:58:33.065Z,13.87
2019-02-06T09:01:03.579Z,13.60
2019-02-06T09:03:34.062Z,13.27
2019-02-06T09:06:04.566Z,12.78
2019-02-06T09:08:35.051Z,12.43
2019-02-06T09:11:05.592Z,12.85
2019-02-06T09:13:36.259Z,12.93
2019-02-06T09:16:06.893Z,11.90
2019-02-06T09:18:37.359Z,13.50
2019-02-06T09:21:07.883Z,11.60
2019-02-06T09:23:38.372Z,12.63
2019-02-06T09:26:09.020Z,12.70
2019-02-06T09:28:39.459Z,12.30
2019-02-06T09:31:10.155Z,11.00
2019-02-06T09:33:40.602Z,10.90
2019-02-06T09:36:11.096Z,11.70
2019-02-06T09:38:41.609Z,10.40
2019-02-06T09:41:12.372Z,11.57
2019-02-06T09:43:42.837Z,11.03
2019-02-06T09:46:13.348Z,10.65
2019-02-06T09:48:43.807Z,11.10
2019-02-06T09:51:14.294Z,10.43
2019-02-06T09:53:44.877Z,10.30
2019-02-06T09:56:15.370Z,9.80
2019-02-06T09:58:45.746Z,9.95
2019-02-06T10:01:16.280Z,10.00
2019-02-06T10:03:47.104Z,9.17
2019-02-06T10:06:17.668Z,10.45
2019-02-06T10:08:48.534Z,9.78
2019-02-06T10:11:19.005Z,9.08
2019-02-06T10:13:49.559Z,9.25
2019-02-06T10:16:20.360Z,8.53
2019-02-06T10:18:50.960Z,10.27
2019-02-06T10:21:21.395Z,8.53
2019-02-06T10:23:52.009Z,7.87
2019-02-06T10:26:22.476Z,9.30
2019-02-06T10:28:53.099Z,8.28
2019-02-06T10:31:23.631Z,8.50
2019-02-06T10:33:54.135Z,7.43
2019-02-06T10:36:24.610Z,7.25
2019-02-06T10:38:55.093Z,8.15
2019-02-06T10:41:25.551Z,7.70
2019-02-06T10:43:56.015Z,8.15
2019-02-06T10:46:26.555Z,8.13
2019-02-06T10:48:57.066Z,7.45
2019-02-06T10:51:27.685Z,8.10
2019-02-06T10:53:58.206Z,7.87
2019-02-06T10:56:28.695Z,8.10
2019-02-06T10:58:59.196Z,8.43
2019-02-06T11:01:29.735Z,8.30
2019-02-06T11:04:00.240Z,8.50
2019-02-06T11:06:30.696Z,8.73
2019-02-06T11:09:01.195Z,8.80
2019-02-06T11:11:31.638Z,8.47
2019-02-06T11:14:02.184Z,8.98
2019-02-06T11:16:32.689Z,8.53
2019-02-06T11:19:03.457Z,8.73
2019-02-06T11:21:33.959Z,8.78
2019-02-06T11:24:04.488Z,9.00
2019-02-06T11:26:34.974Z,8.38
2019-02-06T11:29:05.802Z,9.53
2019-02-06T11:31:36.316Z,8.70
2019-02-06T11:34:06.860Z,8.90
2019-02-06T11:36:37.356Z,10.05
2019-02-06T11:39:19.694Z,8.78
2019-02-06T11:41:50.168Z,9.08
2019-02-06T11:44:20.851Z,8.58
2019-02-06T11:46:51.326Z,9.45
2019-02-06T11:49:25.882Z,9.63
2019-02-06T11:51:56.390Z,9.65
2019-02-06T11:54:26.890Z,9.73
2019-02-06T11:56:57.667Z,9.40
2019-02-06T11:59:28.164Z,9.40
2019-02-06T12:01:58.731Z,9.75
2019-02-06T12:04:29.195Z,9.00
2019-02-06T12:06:59.731Z,8.28
2019-02-06T12:09:30.180Z,9.63
2019-02-06T12:12:00.990Z,9.95
2019-02-06T12:14:31.408Z,9.40
2019-02-06T12:17:01.896Z,9.40
2019-02-06T12:19:32.393Z,10.10
2019-02-06T12:22:02.939Z,10.08
2019-02-06T12:24:33.329Z,9.10
2019-02-06T12:27:03.788Z,9.73
2019-02-06T12:29:34.269Z,9.73
2019-02-06T12:32:05.032Z,10.00
2019-02-06T12:34:35.483Z,10.20
2019-02-06T12:37:05.979Z,9.88
2019-02-06T12:39:36.448Z,9.35
2019-02-06T12:42:07.913Z,9.23
2019-02-06T12:44:38.483Z,9.85
2019-02-06T12:47:08.926Z,9.78
2019-02-06T12:49:39.441Z,10.05
2019-02-06T12:52:09.964Z,9.23
2019-02-06T12:54:40.467Z,8.95
2019-02-06T12:57:11.115Z,9.47
2019-02-06T12:59:41.631Z,9.70
2019-02-06T13:02:12.112Z,10.03
2019-02-06T13:04:42.585Z,9.80
2019-02-06T13:07:13.097Z,9.50
2019-02-06T13:09:43.567Z,9.88
2019-02-06T13:12:14.021Z,10.23
2019-02-06T13:14:44.421Z,9.33
2019-02-06T13:17:14.918Z,10.28
2019-02-06T13:19:45.398Z,9.80
2019-02-06T13:22:15.941Z,10.60
2019-02-06T13:24:46.697Z,9.50
2019-02-06T13:27:17.178Z,10.60
2019-02-06T13:29:47.697Z,9.90
2019-02-06T13:32:18.126Z,10.38
2019-02-06T13:34:48.616Z,8.65
2019-02-06T13:37:19.343Z,9.80
2019-02-06T13:39:49.862Z,10.05
2019-02-06T13:42:20.335Z,9.78
2019-02-06T13:44:50.826Z,11.08
2019-02-06T13:47:40.349Z,9.78
2019-02-06T13:50:21.540Z,9.48
2019-02-06T13:52:44.661Z,9.90
2019-02-06T13:55:15.984Z,9.90
2019-02-06T13:57:46.605Z,9.15
2019-02-06T14:00:20.907Z,9.25
2019-02-06T14:02:51.985Z,9.40
2019-02-06T14:05:25.963Z,10.40
2019-02-06T14:08:09.002Z,10.32
2019-02-06T14:10:39.536Z,10.35
2019-02-06T14:13:10.988Z,9.83
2019-02-06T14:15:44.228Z,9.63
2019-02-06T14:18:14.873Z,10.08
2019-02-06T14:20:47.159Z,9.58
2019-02-06T14:23:50.374Z,10.58
2019-02-06T14:26:55.093Z,10.43
2019-02-06T14:30:12.311Z,9.13
2019-02-06T14:33:41.981Z,10.60
2019-02-06T14:37:08.065Z,10.53
2019-02-06T14:40:22.216Z,10.90
2019-02-06T14:43:36.369Z,10.70
2019-02-06T14:46:50.634Z,10.25
2019-02-06T14:50:23.788Z,10.55
2019-02-06T14:53:36.865Z,8.80
2019-02-06T14:57:05.089Z,9.85
2019-02-06T15:00:22.471Z,9.20
2019-02-06T15:03:49.569Z,10.60
2019-02-06T15:07:19.017Z,9.57
2019-02-06T15:10:43.106Z,9.10
2019-02-06T15:14:22.971Z,10.65
2019-02-06T15:17:48.158Z,11.12
2019-02-06T15:21:01.630Z,10.13
2019-02-06T15:24:59.995Z,10.35
2019-02-06T15:28:18.852Z,10.63
2019-02-06T15:31:52.381Z,11.50
2019-02-06T15:35:12.533Z,10.98
2019-02-06T15:38:58.261Z,10.30
2019-02-06T15:42:14.651Z,10.27
2019-02-06T15:45:27.175Z,9.98
2019-02-06T15:48:36.273Z,9.88
2019-02-06T15:52:28.844Z,10.50
2019-02-06T15:56:14.431Z,10.25
2019-02-06T15:59:23.258Z,10.15
2019-02-06T16:02:47.495Z,9.45
2019-02-06T16:05:54.158Z,9.95
2019-02-06T16:09:20.779Z,11.85
2019-02-06T16:12:33.688Z,9.20
2019-02-06T16:15:30.707Z,11.08
2019-02-06T16:18:45.732Z,9.60
2019-02-06T16:22:37.350Z,9.80
2019-02-06T16:25:48.349Z,11.30
2019-02-06T16:29:02.462Z,11.50
2019-02-06T16:32:12.513Z,10.98
2019-02-06T16:35:23.189Z,12.70
2019-02-06T16:38:42.879Z,12.57
2019-02-06T16:42:01.198Z,11.70
2019-02-06T16:45:16.583Z,11.65
2019-02-06T16:49:05.031Z,11.45
2019-02-06T16:52:06.928Z,12.43
2019-02-06T16:55:23.067Z,12.53
2019-02-06T16:58:50.928Z,11.93
2019-02-06T17:02:16.110Z,13.22
2019-02-06T17:05:42.191Z,13.10
2019-02-06T17:09:09.032Z,10.82
2019-02-06T17:12:15.518Z,12.07
2019-02-06T17:16:07.220Z,13.78
2019-02-06T17:19:21.037Z,12.65
2019-02-06T17:23:17.905Z,12.68
2019-02-06T17:26:30.474Z,12.30
2019-02-06T17:29:49.494Z,12.40
2019-02-06T17:33:04.424Z,13.22
2019-02-06T17:36:58.847Z,13.40
2019-02-06T17:40:21.186Z,14.03
2019-02-06T17:44:01.773Z,14.28
2019-02-06T17:47:27.386Z,12.88
2019-02-06T17:50:48.698Z,13.48
2019-02-06T17:54:08.186Z,13.38
2019-02-06T17:56:38.954Z,13.98
2019-02-06T17:59:09.413Z,13.10
2019-02-06T18:01:51.119Z,13.50
2019-02-06T18:04:25.909Z,13.98
2019-02-06T18:06:57.608Z,13.70
2019-02-06T18:09:28.164Z,15.63
2019-02-06T18:11:58.652Z,13.50
2019-02-06T18:14:29.207Z,14.13
2019-02-06T18:17:00.956Z,13.93
2019-02-06T18:19:36.905Z,14.63
2019-02-06T18:22:09.134Z,14.20
2019-02-06T18:24:39.642Z,13.95
2019-02-06T18:27:11.971Z,14.90
2019-02-06T18:29:42.784Z,15.70
2019-02-06T18:32:13.376Z,15.03
2019-02-06T18:34:44.156Z,16.32
2019-02-06T18:37:14.645Z,16.97
2019-02-06T18:39:45.319Z,16.77
2019-02-06T18:42:15.816Z,16.37
2019-02-06T18:44:46.301Z,16.30
2019-02-06T18:47:16.786Z,16.60
2019-02-06T18:49:47.691Z,15.10
2019-02-06T18:52:20.418Z,15.90
2019-02-06T18:54:50.428Z,16.27
2019-02-06T18:57:20.977Z,16.25
2019-02-06T18:59:51.470Z,17.27
2019-02-06T19:02:22.128Z,17.60
2019-02-06T19:04:52.648Z,16.42
2019-02-06T19:07:23.747Z,16.17
2019-02-06T19:09:54.292Z,17.85
2019-02-06T19:12:24.903Z,16.48
2019-02-06T19:14:58.621Z,15.63
2019-02-06T19:17:28.223Z,17.82
2019-02-06T19:19:58.751Z,15.38
2019-02-06T19:22:29.569Z,15.45
2019-02-06T19:25:00.148Z,15.85
2019-02-06T19:27:30.791Z,15.70
2019-02-06T19:30:01.354Z,14.35
2019-02-06T19:32:31.857Z,15.48
2019-02-06T19:35:02.386Z,16.40
2019-02-06T19:37:35.156Z,16.27
2019-02-06T19:40:06.295Z,15.40
2019-02-06T19:42:36.857Z,16.30
2019-02-06T19:45:08.171Z,15.55
2019-02-06T19:47:38.718Z,16.07
2019-02-06T19:50:23.782Z,16.90
2019-02-06T19:52:54.781Z,15.38
2019-02-06T19:55:25.403Z,16.20
2019-02-06T19:57:55.959Z,16.27
2019-02-06T20:00:29.179Z,15.75
2019-02-06T20:02:59.665Z,16.45
2019-02-06T20:05:30.575Z,16.27
2019-02-06T20:08:01.099Z,16.50
2019-02-06T20:10:35.188Z,16.02
2019-02-06T20:13:12.364Z,14.55
2019-02-06T20:15:38.366Z,14.78
2019-02-06T20:18:09.054Z,16.07
2019-02-06T20:20:39.664Z,15.50
2019-02-06T20:23:10.192Z,16.40
2019-02-06T20:25:40.729Z,17.00
2019-02-06T20:28:11.337Z,17.20
2019-02-06T20:30:41.902Z,17.87
2019-02-06T20:33:12.427Z,17.90
2019-02-06T20:35:42.956Z,17.80
2019-02-06T20:38:13.552Z,19.32
2019-02-06T20:40:44.119Z,17.45
2019-02-06T20:43:21.466Z,18.42
2019-02-06T20:45:46.961Z,17.83
2019-02-06T20:48:17.441Z,18.25
2019-02-06T20:50:47.974Z,18.45
2019-02-06T20:53:18.497Z,17.70
2019-02-06T20:55:49.038Z,18.85
2019-02-06T20:58:19.534Z,17.20
2019-02-06T21:00:50.063Z,18.15
2019-02-06T21:03:20.514Z,18.75
2019-02-06T21:05:51.072Z,16.50
2019-02-06T21:08:21.576Z,16.70
2019-02-06T21:10:52.099Z,17.70
2019-02-06T21:13:32.477Z,17.65
2019-02-06T21:15:54.840Z,17.90
2019-02-06T21:18:25.664Z,17.92
2019-02-06T21:20:56.228Z,16.87
2019-02-06T21:23:26.690Z,19.15
2019-02-06T21:25:57.194Z,17.90
2019-02-06T21:28:27.715Z,16.77
2019-02-06T21:30:58.213Z,16.97
2019-02-06T21:33:28.697Z,15.40
2019-02-06T21:35:59.197Z,16.62
2019-02-06T21:38:29.706Z,15.25
2019-02-06T21:41:00.236Z,16.70
2019-02-06T21:43:30.738Z,18.45
2019-02-06T21:46:01.674Z,18.07
2019-02-06T21:48:32.177Z,15.63
2019-02-06T21:51:02.670Z,16.90
2019-02-06T21:53:34.801Z,17.70
2019-02-06T21:56:05.720Z,15.70
2019-02-06T21:58:36.220Z,17.20
2019-02-06T22:01:06.716Z,16.80
2019-02-06T22:03:37.205Z,16.30
2019-02-06T22:06:07.718Z,17.32
2019-02-06T22:08:38.183Z,18.77
2019-02-06T22:11:09.003Z,17.57
2019-02-06T22:13:39.558Z,17.52
2019-02-06T22:16:10.086Z,18.92
2019-02-06T22:18:40.600Z,19.32
2019-02-06T22:21:11.083Z,20.20
2019-02-06T22:23:41.554Z,19.47
2019-02-06T22:26:12.363Z,19.57
2019-02-06T22:28:43.435Z,20.00
2019-02-06T22:31:13.955Z,20.70
2019-02-06T22:33:44.486Z,20.40
2019-02-06T22:36:14.937Z,20.77
2019-02-06T22:38:45.435Z,20.77
2019-02-06T22:41:15.964Z,20.70
2019-02-06T22:43:46.483Z,20.32
2019-02-06T22:46:17.008Z,20.95
2019-02-06T22:48:47.611Z,20.12
2019-02-06T22:51:18.111Z,19.37
2019-02-06T22:53:48.917Z,19.30
2019-02-06T22:56:19.425Z,20.70
2019-02-06T22:58:49.951Z,21.40
2019-02-06T23:01:52.134Z,20.88
2019-02-06T23:04:22.654Z,21.42
2019-02-06T23:06:53.143Z,20.40
2019-02-06T23:09:23.707Z,20.85
2019-02-06T23:11:54.280Z,20.70
2019-02-06T23:14:24.787Z,20.90
2019-02-06T23:16:55.322Z,21.13
2019-02-06T23:19:25.799Z,19.77
2019-02-06T23:21:56.292Z,20.72
2019-02-06T23:24:26.808Z,21.87
2019-02-06T23:26:57.320Z,20.52
2019-02-06T23:29:27.779Z,19.95
2019-02-06T23:31:58.301Z,19.42
2019-02-06T23:34:28.777Z,21.40
2019-02-06T23:36:59.346Z,21.73
2019-02-06T23:39:29.881Z,20.30
2019-02-06T23:42:00.724Z,21.33
2019-02-06T23:44:31.133Z,20.43
2019-02-06T23:47:01.686Z,22.42
2019-02-06T23:49:32.174Z,21.10
2019-02-06T23:52:02.661Z,20.60
2019-02-06T23:54:33.211Z,20.67
2019-02-06T23:57:03.757Z,22.05
2019-02-06T23:59:34.253Z,22.10
